Etusivu
METAR-TAF:

METAR-TAF

Lentoasemat :

Port Sudan, Sudan

Leveyspiiri: 19-26N, Pituuspiiri: 037-14E, korkeus merenpinnasta: 138 m

METAR: puuttuu

Aika: 23:34 (21:34 UTC)

Sääennuste

Tämä raportti tehtiin 4 tuntia ja 34 minuuttia sitten, kello 17.00 UTC
Ennuste voimassa 31. päivästä klo 18 UTC - 01. päivään klo 24 UTC
Tuuli 10 kn pohjoisesta/koillisesta puuskistuen 20 kn:hen
Näkyvyys 10 km tai enemmän
ei pilviä alle 1500 m:ssä eikä cumulonimbus-pilviä

TAF: HSPN 311700Z 3118/0124 02010G20KT CAVOK

Säähavainnot ja -ennusteet yli 4000 lentoasemalta (METAR- ja TAF-raportit).

Käytössä olevat sääasemat on merkitty karttaan keltaisilla ja punaisilla pisteillä.

Aseta hiiri pisteen päälle nähdäksesi sääaseman nimen.

Klikkaa sitten nähdäksesi säähavainnot ja -ennusteet.

Kartan vaihtaminen: klikkaa mustalla rastilla varustettuja vihreitä pisteitä, niin voit zoomata sisään; viivalla varustettua vihreää pistettä, niin voit zoomata ulos tai vihreitä nuolia, niin pääset viereisille kartoille.


METAR-TAF: